sensor_id;sensor_type;location;lat;lon;timestamp;temperature;humidity
7204;DHT22;3643;52.460;13.322;2023-10-31T00:02:02;12.30;99.90
7204;DHT22;3643;52.460;13.322;2023-10-31T00:04:30;12.00;99.90
7204;DHT22;3643;52.460;13.322;2023-10-31T00:06:59;12.30;99.90
7204;DHT22;3643;52.460;13.322;2023-10-31T00:09:26;11.90;99.90
7204;DHT22;3643;52.460;13.322;2023-10-31T00:11:54;11.90;99.90
7204;DHT22;3643;52.460;13.322;2023-10-31T00:14:22;12.10;99.90
7204;DHT22;3643;52.460;13.322;2023-10-31T00:16:58;11.90;99.90
7204;DHT22;3643;52.460;13.322;2023-10-31T00:19:26;11.90;99.90
7204;DHT22;3643;52.460;13.322;2023-10-31T00:21:55;11.90;99.90
7204;DHT22;3643;52.460;13.322;2023-10-31T00:24:23;11.90;99.90
7204;DHT22;3643;52.460;13.322;2023-10-31T00:26:51;11.90;99.90
7204;DHT22;3643;52.460;13.322;2023-10-31T00:29:19;11.90;99.90
7204;DHT22;3643;52.460;13.322;2023-10-31T00:31:47;11.90;99.90
7204;DHT22;3643;52.460;13.322;2023-10-31T00:34:17;11.90;99.90
7204;DHT22;3643;52.460;13.322;2023-10-31T00:36:45;11.80;99.90
7204;DHT22;3643;52.460;13.322;2023-10-31T00:39:13;11.80;99.90
7204;DHT22;3643;52.460;13.322;2023-10-31T00:41:44;11.80;99.90
7204;DHT22;3643;52.460;13.322;2023-10-31T00:44:12;11.80;99.90
7204;DHT22;3643;52.460;13.322;2023-10-31T00:46:41;11.80;99.90
7204;DHT22;3643;52.460;13.322;2023-10-31T00:49:10;11.80;99.90
7204;DHT22;3643;52.460;13.322;2023-10-31T00:51:39;11.80;99.90
7204;DHT22;3643;52.460;13.322;2023-10-31T00:54:07;11.80;99.90
7204;DHT22;3643;52.460;13.322;2023-10-31T00:56:35;11.80;99.90
7204;DHT22;3643;52.460;13.322;2023-10-31T00:59:03;11.80;99.90
7204;DHT22;3643;52.460;13.322;2023-10-31T01:01:31;11.80;99.90
7204;DHT22;3643;52.460;13.322;2023-10-31T01:04:00;11.80;99.90
7204;DHT22;3643;52.460;13.322;2023-10-31T01:06:28;11.80;99.90
7204;DHT22;3643;52.460;13.322;2023-10-31T01:08:57;11.80;99.90
7204;DHT22;3643;52.460;13.322;2023-10-31T01:11:25;11.80;99.90
7204;DHT22;3643;52.460;13.322;2023-10-31T01:13:53;11.80;99.90
7204;DHT22;3643;52.460;13.322;2023-10-31T01:16:21;11.70;99.90
7204;DHT22;3643;52.460;13.322;2023-10-31T01:18:49;11.70;99.90
7204;DHT22;3643;52.460;13.322;2023-10-31T01:21:17;11.70;99.90
7204;DHT22;3643;52.460;13.322;2023-10-31T01:23:45;11.70;99.90
7204;DHT22;3643;52.460;13.322;2023-10-31T01:26:15;11.60;99.90
7204;DHT22;3643;52.460;13.322;2023-10-31T01:28:43;11.60;99.90
7204;DHT22;3643;52.460;13.322;2023-10-31T01:31:11;11.60;99.90
7204;DHT22;3643;52.460;13.322;2023-10-31T01:33:38;11.60;99.90
7204;DHT22;3643;52.460;13.322;2023-10-31T01:36:07;11.50;99.90
7204;DHT22;3643;52.460;13.322;2023-10-31T01:38:36;11.50;99.90
7204;DHT22;3643;52.460;13.322;2023-10-31T01:41:04;11.60;99.90
7204;DHT22;3643;52.460;13.322;2023-10-31T01:43:35;11.50;99.90
7204;DHT22;3643;52.460;13.322;2023-10-31T01:46:04;11.50;99.90
7204;DHT22;3643;52.460;13.322;2023-10-31T01:48:33;11.50;99.90
7204;DHT22;3643;52.460;13.322;2023-10-31T01:51:03;11.50;99.90
7204;DHT22;3643;52.460;13.322;2023-10-31T01:53:32;11.50;99.90
7204;DHT22;3643;52.460;13.322;2023-10-31T01:56:02;11.40;99.90
7204;DHT22;3643;52.460;13.322;2023-10-31T01:58:32;11.40;99.90
7204;DHT22;3643;52.460;13.322;2023-10-31T02:01:04;11.40;99.90
7204;DHT22;3643;52.460;13.322;2023-10-31T02:03:32;11.40;99.90
7204;DHT22;3643;52.460;13.322;2023-10-31T02:06:00;11.40;99.90
7204;DHT22;3643;52.460;13.322;2023-10-31T02:08:28;11.40;99.90
7204;DHT22;3643;52.460;13.322;2023-10-31T02:10:56;11.40;99.90
7204;DHT22;3643;52.460;13.322;2023-10-31T02:13:24;11.30;99.90
7204;DHT22;3643;52.460;13.322;2023-10-31T02:15:53;11.30;99.90
7204;DHT22;3643;52.460;13.322;2023-10-31T02:18:22;11.30;99.90
7204;DHT22;3643;52.460;13.322;2023-10-31T02:20:50;11.20;99.90
7204;DHT22;3643;52.460;13.322;2023-10-31T02:23:19;11.20;99.90
7204;DHT22;3643;52.460;13.322;2023-10-31T02:25:47;11.20;99.90
7204;DHT22;3643;52.460;13.322;2023-10-31T02:28:15;11.10;99.90
7204;DHT22;3643;52.460;13.322;2023-10-31T02:30:43;11.10;99.90
7204;DHT22;3643;52.460;13.322;2023-10-31T02:33:11;11.10;99.90
7204;DHT22;3643;52.460;13.322;2023-10-31T02:35:39;11.10;99.90
7204;DHT22;3643;52.460;13.322;2023-10-31T02:38:07;11.10;99.90
7204;DHT22;3643;52.460;13.322;2023-10-31T02:40:37;11.10;99.90
7204;DHT22;3643;52.460;13.322;2023-10-31T02:43:05;11.10;99.90
7204;DHT22;3643;52.460;13.322;2023-10-31T02:45:33;11.40;99.90
7204;DHT22;3643;52.460;13.322;2023-10-31T02:48:01;11.10;99.90
7204;DHT22;3643;52.460;13.322;2023-10-31T02:50:29;11.10;99.90
7204;DHT22;3643;52.460;13.322;2023-10-31T02:52:57;11.10;99.90
7204;DHT22;3643;52.460;13.322;2023-10-31T02:55:25;11.10;99.90
7204;DHT22;3643;52.460;13.322;2023-10-31T02:57:54;11.00;99.90
7204;DHT22;3643;52.460;13.322;2023-10-31T03:00:22;11.00;99.90
7204;DHT22;3643;52.460;13.322;2023-10-31T03:02:50;11.10;99.90
7204;DHT22;3643;52.460;13.322;2023-10-31T03:05:19;11.10;99.90
7204;DHT22;3643;52.460;13.322;2023-10-31T03:07:47;11.10;99.90
7204;DHT22;3643;52.460;13.322;2023-10-31T03:10:15;11.10;99.90
7204;DHT22;3643;52.460;13.322;2023-10-31T03:12:43;11.00;99.90
7204;DHT22;3643;52.460;13.322;2023-10-31T03:15:13;11.00;99.90
7204;DHT22;3643;52.460;13.322;2023-10-31T03:17:41;11.00;99.90
7204;DHT22;3643;52.460;13.322;2023-10-31T03:20:10;11.00;99.90
7204;DHT22;3643;52.460;13.322;2023-10-31T03:22:38;11.00;99.90
7204;DHT22;3643;52.460;13.322;2023-10-31T03:25:07;11.00;99.90
7204;DHT22;3643;52.460;13.322;2023-10-31T03:27:35;10.90;99.90
7204;DHT22;3643;52.460;13.322;2023-10-31T03:30:03;10.90;99.90
7204;DHT22;3643;52.460;13.322;2023-10-31T03:32:33;10.90;99.90
7204;DHT22;3643;52.460;13.322;2023-10-31T03:35:01;11.10;99.90
7204;DHT22;3643;52.460;13.322;2023-10-31T03:37:29;11.00;99.90
7204;DHT22;3643;52.460;13.322;2023-10-31T03:39:57;10.90;99.90
7204;DHT22;3643;52.460;13.322;2023-10-31T03:42:25;11.10;99.90
7204;DHT22;3643;52.460;13.322;2023-10-31T03:44:53;11.00;99.90
7204;DHT22;3643;52.460;13.322;2023-10-31T03:47:21;11.00;99.90
7204;DHT22;3643;52.460;13.322;2023-10-31T03:49:50;11.10;99.90
7204;DHT22;3643;52.460;13.322;2023-10-31T03:52:18;11.00;99.90
7204;DHT22;3643;52.460;13.322;2023-10-31T03:54:46;10.90;99.90
7204;DHT22;3643;52.460;13.322;2023-10-31T03:57:14;11.20;99.90
7204;DHT22;3643;52.460;13.322;2023-10-31T03:59:42;10.90;99.90
7204;DHT22;3643;52.460;13.322;2023-10-31T04:02:10;10.90;99.90
7204;DHT22;3643;52.460;13.322;2023-10-31T04:04:38;10.90;99.90
7204;DHT22;3643;52.460;13.322;2023-10-31T04:07:08;10.90;99.90
7204;DHT22;3643;52.460;13.322;2023-10-31T04:09:36;10.90;99.90
7204;DHT22;3643;52.460;13.322;2023-10-31T04:12:04;11.00;99.90
7204;DHT22;3643;52.460;13.322;2023-10-31T04:14:32;11.00;99.90
7204;DHT22;3643;52.460;13.322;2023-10-31T04:17:00;11.00;99.90
7204;DHT22;3643;52.460;13.322;2023-10-31T04:19:28;11.00;99.90
7204;DHT22;3643;52.460;13.322;2023-10-31T04:21:56;11.20;99.90
7204;DHT22;3643;52.460;13.322;2023-10-31T04:24:26;11.00;99.90
7204;DHT22;3643;52.460;13.322;2023-10-31T04:26:54;11.00;99.90
7204;DHT22;3643;52.460;13.322;2023-10-31T04:29:22;10.90;99.90
7204;DHT22;3643;52.460;13.322;2023-10-31T04:31:50;11.00;99.90
7204;DHT22;3643;52.460;13.322;2023-10-31T04:34:18;11.00;99.90
7204;DHT22;3643;52.460;13.322;2023-10-31T04:36:46;11.00;99.90
7204;DHT22;3643;52.460;13.322;2023-10-31T04:39:14;11.00;99.90
7204;DHT22;3643;52.460;13.322;2023-10-31T04:41:43;11.10;99.90
7204;DHT22;3643;52.460;13.322;2023-10-31T04:44:11;11.10;99.90
7204;DHT22;3643;52.460;13.322;2023-10-31T04:46:39;11.00;99.90
7204;DHT22;3643;52.460;13.322;2023-10-31T04:49:07;11.10;99.90
7204;DHT22;3643;52.460;13.322;2023-10-31T04:51:35;11.10;99.90
7204;DHT22;3643;52.460;13.322;2023-10-31T04:54:04;11.10;99.90
7204;DHT22;3643;52.460;13.322;2023-10-31T04:56:33;11.10;99.90
7204;DHT22;3643;52.460;13.322;2023-10-31T04:59:08;11.20;99.90
7204;DHT22;3643;52.460;13.322;2023-10-31T05:01:36;11.20;99.90
7204;DHT22;3643;52.460;13.322;2023-10-31T05:04:04;11.20;99.90
7204;DHT22;3643;52.460;13.322;2023-10-31T05:06:39;11.20;99.90
7204;DHT22;3643;52.460;13.322;2023-10-31T05:09:07;11.50;99.90
7204;DHT22;3643;52.460;13.322;2023-10-31T05:11:37;11.20;99.90
7204;DHT22;3643;52.460;13.322;2023-10-31T05:14:08;11.30;99.90
7204;DHT22;3643;52.460;13.322;2023-10-31T05:16:41;11.40;99.90
7204;DHT22;3643;52.460;13.322;2023-10-31T05:19:10;11.40;99.90
7204;DHT22;3643;52.460;13.322;2023-10-31T05:21:38;11.30;99.90
7204;DHT22;3643;52.460;13.322;2023-10-31T05:24:07;11.30;99.90
7204;DHT22;3643;52.460;13.322;2023-10-31T05:26:35;11.30;99.90
7204;DHT22;3643;52.460;13.322;2023-10-31T05:29:03;11.30;99.90
7204;DHT22;3643;52.460;13.322;2023-10-31T05:31:33;11.30;99.90
7204;DHT22;3643;52.460;13.322;2023-10-31T05:34:01;11.40;99.90
7204;DHT22;3643;52.460;13.322;2023-10-31T05:36:30;11.40;99.90
7204;DHT22;3643;52.460;13.322;2023-10-31T05:38:58;11.30;99.90
7204;DHT22;3643;52.460;13.322;2023-10-31T05:41:26;11.40;99.90
7204;DHT22;3643;52.460;13.322;2023-10-31T05:43:54;11.40;99.90
7204;DHT22;3643;52.460;13.322;2023-10-31T05:46:22;11.40;99.90
7204;DHT22;3643;52.460;13.322;2023-10-31T05:48:51;11.40;99.90
7204;DHT22;3643;52.460;13.322;2023-10-31T05:51:20;11.40;99.90
7204;DHT22;3643;52.460;13.322;2023-10-31T05:53:48;11.40;99.90
7204;DHT22;3643;52.460;13.322;2023-10-31T05:56:16;11.40;99.90
7204;DHT22;3643;52.460;13.322;2023-10-31T05:58:45;11.40;99.90
7204;DHT22;3643;52.460;13.322;2023-10-31T06:01:13;11.40;99.90
7204;DHT22;3643;52.460;13.322;2023-10-31T06:03:41;11.40;99.90
7204;DHT22;3643;52.460;13.322;2023-10-31T06:06:12;11.50;99.90
7204;DHT22;3643;52.460;13.322;2023-10-31T06:08:41;11.50;99.90
7204;DHT22;3643;52.460;13.322;2023-10-31T06:11:09;11.50;99.90
7204;DHT22;3643;52.460;13.322;2023-10-31T06:13:39;11.50;99.90
7204;DHT22;3643;52.460;13.322;2023-10-31T06:16:07;11.50;99.90
7204;DHT22;3643;52.460;13.322;2023-10-31T06:18:37;11.60;99.90
7204;DHT22;3643;52.460;13.322;2023-10-31T06:21:05;11.60;99.90
7204;DHT22;3643;52.460;13.322;2023-10-31T06:23:36;11.60;99.90
7204;DHT22;3643;52.460;13.322;2023-10-31T06:26:04;11.60;99.90
7204;DHT22;3643;52.460;13.322;2023-10-31T06:28:32;11.60;99.90
7204;DHT22;3643;52.460;13.322;2023-10-31T06:31:09;11.60;99.90
7204;DHT22;3643;52.460;13.322;2023-10-31T06:33:37;11.70;99.90
7204;DHT22;3643;52.460;13.322;2023-10-31T06:36:06;11.70;99.90
7204;DHT22;3643;52.460;13.322;2023-10-31T06:38:36;11.70;99.90
7204;DHT22;3643;52.460;13.322;2023-10-31T06:41:04;11.80;99.90
7204;DHT22;3643;52.460;13.322;2023-10-31T06:43:32;11.70;99.90
7204;DHT22;3643;52.460;13.322;2023-10-31T06:46:01;11.80;99.90
7204;DHT22;3643;52.460;13.322;2023-10-31T06:48:31;11.80;99.90
7204;DHT22;3643;52.460;13.322;2023-10-31T06:50:59;11.80;99.90
7204;DHT22;3643;52.460;13.322;2023-10-31T06:53:27;12.10;99.90
7204;DHT22;3643;52.460;13.322;2023-10-31T06:55:57;11.80;99.90
7204;DHT22;3643;52.460;13.322;2023-10-31T06:58:25;11.90;99.90
7204;DHT22;3643;52.460;13.322;2023-10-31T07:00:53;11.90;99.90
7204;DHT22;3643;52.460;13.322;2023-10-31T07:03:21;11.90;99.90
7204;DHT22;3643;52.460;13.322;2023-10-31T07:05:49;11.90;99.90
7204;DHT22;3643;52.460;13.322;2023-10-31T07:08:18;11.90;99.90
7204;DHT22;3643;52.460;13.322;2023-10-31T07:10:46;11.90;99.90
7204;DHT22;3643;52.460;13.322;2023-10-31T07:13:16;12.00;99.90
7204;DHT22;3643;52.460;13.322;2023-10-31T07:15:46;12.00;99.90
7204;DHT22;3643;52.460;13.322;2023-10-31T07:18:14;12.00;99.90
7204;DHT22;3643;52.460;13.322;2023-10-31T07:20:42;12.00;99.90
7204;DHT22;3643;52.460;13.322;2023-10-31T07:23:10;12.00;99.90
7204;DHT22;3643;52.460;13.322;2023-10-31T07:25:38;12.00;99.90
7204;DHT22;3643;52.460;13.322;2023-10-31T07:28:06;12.00;99.90
7204;DHT22;3643;52.460;13.322;2023-10-31T07:30:36;11.90;99.90
7204;DHT22;3643;52.460;13.322;2023-10-31T07:33:04;11.80;99.90
7204;DHT22;3643;52.460;13.322;2023-10-31T07:35:32;11.80;99.90
7204;DHT22;3643;52.460;13.322;2023-10-31T07:38:00;11.90;99.90
7204;DHT22;3643;52.460;13.322;2023-10-31T07:40:28;11.80;99.90
7204;DHT22;3643;52.460;13.322;2023-10-31T07:42:56;11.60;99.90
7204;DHT22;3643;52.460;13.322;2023-10-31T07:45:24;11.40;99.90
7204;DHT22;3643;52.460;13.322;2023-10-31T07:47:53;11.30;99.90
7204;DHT22;3643;52.460;13.322;2023-10-31T07:50:21;11.30;99.90
7204;DHT22;3643;52.460;13.322;2023-10-31T07:52:49;11.20;99.90
7204;DHT22;3643;52.460;13.322;2023-10-31T07:55:17;11.00;99.90
7204;DHT22;3643;52.460;13.322;2023-10-31T07:57:45;10.90;99.90
7204;DHT22;3643;52.460;13.322;2023-10-31T08:00:14;10.90;99.90
7204;DHT22;3643;52.460;13.322;2023-10-31T08:02:42;10.90;99.90
7204;DHT22;3643;52.460;13.322;2023-10-31T08:05:12;10.90;99.90
7204;DHT22;3643;52.460;13.322;2023-10-31T08:07:40;10.80;99.90
7204;DHT22;3643;52.460;13.322;2023-10-31T08:10:09;10.90;99.90
7204;DHT22;3643;52.460;13.322;2023-10-31T08:12:37;11.00;99.90
7204;DHT22;3643;52.460;13.322;2023-10-31T08:15:06;10.90;99.90
7204;DHT22;3643;52.460;13.322;2023-10-31T08:17:34;11.00;99.90
7204;DHT22;3643;52.460;13.322;2023-10-31T08:20:02;11.00;99.90
7204;DHT22;3643;52.460;13.322;2023-10-31T08:22:32;11.20;99.90
7204;DHT22;3643;52.460;13.322;2023-10-31T08:25:00;11.20;99.90
7204;DHT22;3643;52.460;13.322;2023-10-31T08:27:28;11.10;99.90
7204;DHT22;3643;52.460;13.322;2023-10-31T08:29:56;10.90;99.90
7204;DHT22;3643;52.460;13.322;2023-10-31T08:32:24;10.90;99.90
7204;DHT22;3643;52.460;13.322;2023-10-31T08:34:52;11.00;99.90
7204;DHT22;3643;52.460;13.322;2023-10-31T08:37:23;11.10;99.90
7204;DHT22;3643;52.460;13.322;2023-10-31T08:39:52;11.10;99.90
7204;DHT22;3643;52.460;13.322;2023-10-31T08:42:20;11.50;99.90
7204;DHT22;3643;52.460;13.322;2023-10-31T08:44:48;11.60;99.90
7204;DHT22;3643;52.460;13.322;2023-10-31T08:47:16;11.60;99.90
7204;DHT22;3643;52.460;13.322;2023-10-31T08:49:45;11.60;99.90
7204;DHT22;3643;52.460;13.322;2023-10-31T08:52:13;11.30;99.90
7204;DHT22;3643;52.460;13.322;2023-10-31T08:54:41;11.50;99.90
7204;DHT22;3643;52.460;13.322;2023-10-31T08:57:10;11.40;99.90
7204;DHT22;3643;52.460;13.322;2023-10-31T08:59:38;11.40;99.90
7204;DHT22;3643;52.460;13.322;2023-10-31T09:02:07;11.20;99.90
7204;DHT22;3643;52.460;13.322;2023-10-31T09:04:35;11.30;99.90
7204;DHT22;3643;52.460;13.322;2023-10-31T09:07:03;11.20;99.90
7204;DHT22;3643;52.460;13.322;2023-10-31T09:09:31;11.30;99.90
7204;DHT22;3643;52.460;13.322;2023-10-31T09:11:59;11.30;99.90
7204;DHT22;3643;52.460;13.322;2023-10-31T09:14:29;11.20;99.90
7204;DHT22;3643;52.460;13.322;2023-10-31T09:16:57;11.40;99.90
7204;DHT22;3643;52.460;13.322;2023-10-31T09:19:25;11.60;99.90
7204;DHT22;3643;52.460;13.322;2023-10-31T09:21:54;11.40;99.90
7204;DHT22;3643;52.460;13.322;2023-10-31T09:24:22;11.50;99.90
7204;DHT22;3643;52.460;13.322;2023-10-31T09:26:50;11.20;99.90
7204;DHT22;3643;52.460;13.322;2023-10-31T09:29:18;11.20;99.90
7204;DHT22;3643;52.460;13.322;2023-10-31T09:31:57;11.10;99.90
7204;DHT22;3643;52.460;13.322;2023-10-31T09:34:26;11.20;99.90
7204;DHT22;3643;52.460;13.322;2023-10-31T09:36:54;11.10;99.90
7204;DHT22;3643;52.460;13.322;2023-10-31T09:41:59;11.00;99.90
7204;DHT22;3643;52.460;13.322;2023-10-31T09:44:27;11.20;99.90
7204;DHT22;3643;52.460;13.322;2023-10-31T09:46:57;11.10;99.90
7204;DHT22;3643;52.460;13.322;2023-10-31T09:49:28;11.30;99.90
7204;DHT22;3643;52.460;13.322;2023-10-31T09:51:57;11.20;99.90
7204;DHT22;3643;52.460;13.322;2023-10-31T09:54:26;11.20;99.90
7204;DHT22;3643;52.460;13.322;2023-10-31T09:56:54;11.40;99.90
7204;DHT22;3643;52.460;13.322;2023-10-31T09:59:23;11.70;99.90
7204;DHT22;3643;52.460;13.322;2023-10-31T10:01:51;11.50;99.90
7204;DHT22;3643;52.460;13.322;2023-10-31T10:04:21;11.60;99.90
7204;DHT22;3643;52.460;13.322;2023-10-31T10:06:51;11.70;99.90
7204;DHT22;3643;52.460;13.322;2023-10-31T10:09:19;11.80;99.90
7204;DHT22;3643;52.460;13.322;2023-10-31T10:11:47;11.80;99.90
7204;DHT22;3643;52.460;13.322;2023-10-31T10:14:16;12.00;99.90
7204;DHT22;3643;52.460;13.322;2023-10-31T10:16:44;12.00;99.90
7204;DHT22;3643;52.460;13.322;2023-10-31T10:19:16;12.20;99.90
7204;DHT22;3643;52.460;13.322;2023-10-31T10:21:49;12.50;99.90
7204;DHT22;3643;52.460;13.322;2023-10-31T10:24:17;12.40;99.90
7204;DHT22;3643;52.460;13.322;2023-10-31T10:26:45;12.60;99.90
7204;DHT22;3643;52.460;13.322;2023-10-31T10:29:14;12.80;99.90
7204;DHT22;3643;52.460;13.322;2023-10-31T10:31:42;12.50;99.90
7204;DHT22;3643;52.460;13.322;2023-10-31T10:34:14;12.50;99.90
7204;DHT22;3643;52.460;13.322;2023-10-31T10:36:48;12.60;99.90
7204;DHT22;3643;52.460;13.322;2023-10-31T10:39:19;12.70;99.90
7204;DHT22;3643;52.460;13.322;2023-10-31T10:41:52;12.90;99.90
7204;DHT22;3643;52.460;13.322;2023-10-31T10:44:29;13.10;99.90
7204;DHT22;3643;52.460;13.322;2023-10-31T10:47:01;13.30;99.90
7204;DHT22;3643;52.460;13.322;2023-10-31T10:49:33;13.30;99.90
7204;DHT22;3643;52.460;13.322;2023-10-31T10:52:12;13.30;99.90
7204;DHT22;3643;52.460;13.322;2023-10-31T10:54:45;13.30;99.90
7204;DHT22;3643;52.460;13.322;2023-10-31T10:57:15;13.40;99.90
7204;DHT22;3643;52.460;13.322;2023-10-31T10:59:49;13.40;99.90
7204;DHT22;3643;52.460;13.322;2023-10-31T11:02:19;13.50;99.90
7204;DHT22;3643;52.460;13.322;2023-10-31T11:04:48;13.50;99.90
7204;DHT22;3643;52.460;13.322;2023-10-31T11:07:18;13.40;99.90
7204;DHT22;3643;52.460;13.322;2023-10-31T11:09:47;13.30;99.90
7204;DHT22;3643;52.460;13.322;2023-10-31T11:12:16;13.40;99.90
7204;DHT22;3643;52.460;13.322;2023-10-31T11:14:44;13.50;99.90
7204;DHT22;3643;52.460;13.322;2023-10-31T11:17:18;13.60;99.90
7204;DHT22;3643;52.460;13.322;2023-10-31T11:19:51;13.70;99.90
7204;DHT22;3643;52.460;13.322;2023-10-31T11:22:23;13.70;99.90
7204;DHT22;3643;52.460;13.322;2023-10-31T11:24:51;13.70;99.90
7204;DHT22;3643;52.460;13.322;2023-10-31T11:27:19;13.60;99.90
7204;DHT22;3643;52.460;13.322;2023-10-31T11:29:47;13.60;99.90
7204;DHT22;3643;52.460;13.322;2023-10-31T11:32:16;13.50;99.90
7204;DHT22;3643;52.460;13.322;2023-10-31T11:34:44;13.50;99.90
7204;DHT22;3643;52.460;13.322;2023-10-31T11:37:24;13.50;99.90
7204;DHT22;3643;52.460;13.322;2023-10-31T11:40:15;13.30;99.90
7204;DHT22;3643;52.460;13.322;2023-10-31T11:42:47;13.20;99.90
7204;DHT22;3643;52.460;13.322;2023-10-31T11:45:26;13.50;99.90
7204;DHT22;3643;52.460;13.322;2023-10-31T11:47:55;13.10;99.90
7204;DHT22;3643;52.460;13.322;2023-10-31T11:50:24;13.20;99.90
7204;DHT22;3643;52.460;13.322;2023-10-31T11:53:01;13.20;99.90
7204;DHT22;3643;52.460;13.322;2023-10-31T11:55:35;13.30;99.90
7204;DHT22;3643;52.460;13.322;2023-10-31T11:58:17;13.30;99.90
7204;DHT22;3643;52.460;13.322;2023-10-31T12:00:47;13.30;99.90
7204;DHT22;3643;52.460;13.322;2023-10-31T12:03:16;13.20;99.90
7204;DHT22;3643;52.460;13.322;2023-10-31T12:05:52;13.10;99.90
7204;DHT22;3643;52.460;13.322;2023-10-31T12:08:30;13.10;99.90
7204;DHT22;3643;52.460;13.322;2023-10-31T12:11:08;13.10;99.90
7204;DHT22;3643;52.460;13.322;2023-10-31T12:13:37;13.10;99.90
7204;DHT22;3643;52.460;13.322;2023-10-31T12:16:07;13.10;99.90
7204;DHT22;3643;52.460;13.322;2023-10-31T12:18:36;13.00;99.90
7204;DHT22;3643;52.460;13.322;2023-10-31T12:21:06;13.00;99.90
7204;DHT22;3643;52.460;13.322;2023-10-31T12:23:36;12.90;99.90
7204;DHT22;3643;52.460;13.322;2023-10-31T12:26:04;12.90;99.90
7204;DHT22;3643;52.460;13.322;2023-10-31T12:28:32;12.90;99.90
7204;DHT22;3643;52.460;13.322;2023-10-31T12:31:02;12.90;99.90
7204;DHT22;3643;52.460;13.322;2023-10-31T12:33:30;13.00;99.90
7204;DHT22;3643;52.460;13.322;2023-10-31T12:35:59;13.00;99.90
7204;DHT22;3643;52.460;13.322;2023-10-31T12:38:28;13.10;99.90
7204;DHT22;3643;52.460;13.322;2023-10-31T12:40:58;13.10;99.90
7204;DHT22;3643;52.460;13.322;2023-10-31T12:43:26;13.00;99.90
7204;DHT22;3643;52.460;13.322;2023-10-31T12:45:56;12.60;99.90
7204;DHT22;3643;52.460;13.322;2023-10-31T12:48:24;13.10;99.90
7204;DHT22;3643;52.460;13.322;2023-10-31T12:51:06;13.10;99.90
7204;DHT22;3643;52.460;13.322;2023-10-31T12:53:35;13.00;99.90
7204;DHT22;3643;52.460;13.322;2023-10-31T12:56:06;13.00;99.90
7204;DHT22;3643;52.460;13.322;2023-10-31T12:58:34;13.00;99.90
7204;DHT22;3643;52.460;13.322;2023-10-31T13:01:11;13.20;99.90
7204;DHT22;3643;52.460;13.322;2023-10-31T13:03:48;12.90;99.90
7204;DHT22;3643;52.460;13.322;2023-10-31T13:06:18;12.70;99.90
7204;DHT22;3643;52.460;13.322;2023-10-31T13:08:46;12.70;99.90
7204;DHT22;3643;52.460;13.322;2023-10-31T13:11:15;12.70;99.90
7204;DHT22;3643;52.460;13.322;2023-10-31T13:13:44;12.70;99.90
7204;DHT22;3643;52.460;13.322;2023-10-31T13:16:12;12.80;99.90
7204;DHT22;3643;52.460;13.322;2023-10-31T13:18:40;12.80;99.90
7204;DHT22;3643;52.460;13.322;2023-10-31T13:21:08;12.90;99.90
7204;DHT22;3643;52.460;13.322;2023-10-31T13:23:37;12.90;99.90
7204;DHT22;3643;52.460;13.322;2023-10-31T13:26:05;12.90;99.90
7204;DHT22;3643;52.460;13.322;2023-10-31T13:28:35;12.90;99.90
7204;DHT22;3643;52.460;13.322;2023-10-31T13:31:05;12.90;99.90
7204;DHT22;3643;52.460;13.322;2023-10-31T13:33:33;12.90;99.90
7204;DHT22;3643;52.460;13.322;2023-10-31T13:36:02;12.90;99.90
7204;DHT22;3643;52.460;13.322;2023-10-31T13:38:31;12.80;99.90
7204;DHT22;3643;52.460;13.322;2023-10-31T13:40:59;12.70;99.90
7204;DHT22;3643;52.460;13.322;2023-10-31T13:43:28;12.70;99.90
7204;DHT22;3643;52.460;13.322;2023-10-31T13:45:57;12.60;99.90
7204;DHT22;3643;52.460;13.322;2023-10-31T13:48:25;12.20;99.90
7204;DHT22;3643;52.460;13.322;2023-10-31T13:50:53;12.60;99.90
7204;DHT22;3643;52.460;13.322;2023-10-31T13:53:21;12.80;99.90
7204;DHT22;3643;52.460;13.322;2023-10-31T13:55:49;12.50;99.90
7204;DHT22;3643;52.460;13.322;2023-10-31T13:58:17;12.50;99.90
7204;DHT22;3643;52.460;13.322;2023-10-31T14:00:47;12.50;99.90
7204;DHT22;3643;52.460;13.322;2023-10-31T14:03:16;12.00;99.90
7204;DHT22;3643;52.460;13.322;2023-10-31T14:05:44;11.80;99.90
7204;DHT22;3643;52.460;13.322;2023-10-31T14:08:12;11.60;99.90
7204;DHT22;3643;52.460;13.322;2023-10-31T14:10:40;11.50;99.90
7204;DHT22;3643;52.460;13.322;2023-10-31T14:13:12;11.60;99.90
7204;DHT22;3643;52.460;13.322;2023-10-31T14:15:41;11.40;99.90
7204;DHT22;3643;52.460;13.322;2023-10-31T14:18:09;11.40;99.90
7204;DHT22;3643;52.460;13.322;2023-10-31T14:20:39;11.40;99.90
7204;DHT22;3643;52.460;13.322;2023-10-31T14:23:08;11.40;99.90
7204;DHT22;3643;52.460;13.322;2023-10-31T14:25:35;11.40;99.90
7204;DHT22;3643;52.460;13.322;2023-10-31T14:28:06;11.40;99.90
7204;DHT22;3643;52.460;13.322;2023-10-31T14:30:35;11.30;99.90
7204;DHT22;3643;52.460;13.322;2023-10-31T14:33:03;11.40;99.90
7204;DHT22;3643;52.460;13.322;2023-10-31T14:35:31;11.40;99.90
7204;DHT22;3643;52.460;13.322;2023-10-31T14:38:00;11.30;99.90
7204;DHT22;3643;52.460;13.322;2023-10-31T14:40:28;11.30;99.90
7204;DHT22;3643;52.460;13.322;2023-10-31T14:42:57;11.30;99.90
7204;DHT22;3643;52.460;13.322;2023-10-31T14:45:25;11.40;99.90
7204;DHT22;3643;52.460;13.322;2023-10-31T14:47:53;11.10;99.90
7204;DHT22;3643;52.460;13.322;2023-10-31T14:50:21;11.10;99.90
7204;DHT22;3643;52.460;13.322;2023-10-31T14:52:49;11.00;99.90
7204;DHT22;3643;52.460;13.322;2023-10-31T14:55:19;11.00;99.90
7204;DHT22;3643;52.460;13.322;2023-10-31T14:57:47;10.90;99.90
7204;DHT22;3643;52.460;13.322;2023-10-31T15:00:15;10.90;99.90
7204;DHT22;3643;52.460;13.322;2023-10-31T15:02:43;10.90;99.90
7204;DHT22;3643;52.460;13.322;2023-10-31T15:05:11;10.90;99.90
7204;DHT22;3643;52.460;13.322;2023-10-31T15:07:39;10.80;99.90
7204;DHT22;3643;52.460;13.322;2023-10-31T15:10:08;10.80;99.90
7204;DHT22;3643;52.460;13.322;2023-10-31T15:12:38;10.80;99.90
7204;DHT22;3643;52.460;13.322;2023-10-31T15:15:06;10.80;99.90
7204;DHT22;3643;52.460;13.322;2023-10-31T15:17:35;10.70;99.90
7204;DHT22;3643;52.460;13.322;2023-10-31T15:20:04;10.60;99.90
7204;DHT22;3643;52.460;13.322;2023-10-31T15:22:33;10.60;99.90
7204;DHT22;3643;52.460;13.322;2023-10-31T15:25:01;10.60;99.90
7204;DHT22;3643;52.460;13.322;2023-10-31T15:27:29;10.60;99.90
7204;DHT22;3643;52.460;13.322;2023-10-31T15:29:59;10.60;99.90
7204;DHT22;3643;52.460;13.322;2023-10-31T15:32:27;10.60;99.90
7204;DHT22;3643;52.460;13.322;2023-10-31T15:34:55;10.60;99.90
7204;DHT22;3643;52.460;13.322;2023-10-31T15:37:23;10.60;99.90
7204;DHT22;3643;52.460;13.322;2023-10-31T15:42:32;10.50;99.90
7204;DHT22;3643;52.460;13.322;2023-10-31T15:45:02;10.50;99.90
7204;DHT22;3643;52.460;13.322;2023-10-31T15:47:31;10.50;99.90
7204;DHT22;3643;52.460;13.322;2023-10-31T15:49:59;10.40;99.90
7204;DHT22;3643;52.460;13.322;2023-10-31T15:52:27;10.40;99.90
7204;DHT22;3643;52.460;13.322;2023-10-31T15:54:55;10.40;99.90
7204;DHT22;3643;52.460;13.322;2023-10-31T15:57:23;10.40;99.90
7204;DHT22;3643;52.460;13.322;2023-10-31T15:59:51;10.40;99.90
7204;DHT22;3643;52.460;13.322;2023-10-31T16:02:21;10.50;99.90